Calgary / Christiansen Field

CRS3 · 艾伯塔, 加拿大

罗盘
风向 的 风向 190°
风: 5 kt, 2 beaufort

添加一条跑道以查看侧风和逆风信息。

添置 跑道
0 ft 6.000 12.000 18.000 24.000 30.000
Cloud Cloud
FEW 30.000
METAR CYYC 291900Z 19005KT 40SM FEW300 M18/M25 A3028 RMK CI1 CI TR SLP364

METAR Calgary / Christiansen Field - CRS3

Calgary / Christiansen Field是,加拿大中的小机场。 视场标高为3.820 ft。 该领域的国际民航组织标志是CRS3.

这份报告是针对2023年1月29日 12:00, 当地时间在Calgary International Airport进行的。

机场观察

风向为190°,速度为5 kt。

可见度为40 mi。

有几云在30.000 ft的高度。 没有观察到天花板。

温度为-18 °C,阵风为-27 °C。 露点为-25 °C,相对湿度为54%。 海平面上的气压为30,28 inHg (QNH)。

白天

今天,太阳从08:16升起,在17:22降落。 这适用于Calgary / Christiansen Field,世界夏令时可能有所不同。 当地时间与世界标准时间之间的时差为-7 小时。 当前,没有夏令时有效。

公司介绍

我们没有关于这个机场的公司信息。

体会

到Vliegles.nl去找飞行课程,跳伞和其他飞行体验。 浏览页面,了解Calgary / Christiansen Field附近所有可用的活动。 你也可以使用搜索功能来寻找你所在地附近的特定飞行课程、跳伞或其他飞行体验。

乌云

30.000 ft FEW 几云

温度 & 天气

温度 -18 °C
露点 -25 °C
相对湿度 54%
风寒 -27 °C
Kp-index 0 (0-9)

评论

SLP364海平面压力为30,60 inHg (30,60 inHg)
CI1 CI TR

白天

日出
08:17
中午
12:49
日落
17:21 (4:41)

小工具

你想在你的网站上有一个关于Calgary / Christiansen Field的当前航空天气(METAR)的小部件吗?

显示HTML代码

我们和第三方通过cookies跟踪您在我们网站上的互联网行为。如果你继续,我们认为你同意我们的饼干政策